Time;durP1;ratioP1;P1;durP2;ratioP2;P2;SDS_P1;SDS_P2;PMS_P1;PMS_P2;Temp;Humidity;BMP_temperature;BMP_pressure;BME280_temperature;BME280_humidity;BME280_pressure;Samples;Min_cycle;Max_cycle;Signal;HPM_P1;HPM_P2
2023/04/27 00:00:44;;;;;;;4.47;0.47;;;21.60;99.90;;;;;;5073647;28;20217;-74
2023/04/27 00:03:15;;;;;;;4.03;0.50;;;21.70;99.90;;;;;;5087185;28;20562;-74
2023/04/27 00:05:46;;;;;;;1.77;0.40;;;21.70;99.90;;;;;;5085506;28;20193;-73
2023/04/27 00:08:17;;;;;;;4.03;0.70;;;21.80;99.90;;;;;;5074748;28;20660;-75
2023/04/27 00:10:48;;;;;;;2.75;0.57;;;22.00;99.90;;;;;;5088430;28;20208;-75
2023/04/27 00:13:19;;;;;;;6.55;0.73;;;22.10;99.90;;;;;;5089776;28;20192;-74
2023/04/27 00:15:52;;;;;;;3.20;0.50;;;22.20;99.90;;;;;;5094723;28;20561;-73
2023/04/27 00:18:23;;;;;;;2.30;0.50;;;22.30;99.90;;;;;;5093829;28;20609;-76
2023/04/27 00:20:54;;;;;;;4.07;0.50;;;22.30;99.90;;;;;;5090181;28;20196;-74
2023/04/27 00:23:25;;;;;;;2.08;0.75;;;22.40;99.90;;;;;;5094216;28;20205;-74
2023/04/27 00:25:57;;;;;;;2.47;0.40;;;22.50;99.90;;;;;;5094168;28;20199;-74
2023/04/27 00:28:28;;;;;;;4.32;0.60;;;22.60;99.90;;;;;;5094191;28;20583;-73
2023/04/27 00:31:02;;;;;;;2.13;0.40;;;22.60;99.90;;;;;;5094208;28;20571;-73
2023/04/27 00:33:33;;;;;;;2.38;0.35;;;22.70;99.90;;;;;;5093892;28;20199;-74
2023/04/27 00:36:04;;;;;;;2.80;0.60;;;22.80;99.90;;;;;;5094091;28;20195;-74
2023/04/27 00:38:36;;;;;;;3.95;0.70;;;22.80;99.90;;;;;;5085718;28;20239;-74
2023/04/27 00:41:07;;;;;;;2.83;0.50;;;22.90;99.90;;;;;;5074053;28;20196;-74
2023/04/27 00:43:46;;;;;;;4.78;0.73;;;23.00;99.90;;;;;;5073577;28;20197;-74
2023/04/27 00:46:20;;;;;;;2.88;0.50;;;23.00;99.90;;;;;;5073929;28;20196;-74
2023/04/27 00:48:52;;;;;;;2.22;0.40;;;23.10;99.90;;;;;;5073291;28;20188;-74
2023/04/27 00:51:26;;;;;;;3.33;0.40;;;23.20;99.90;;;;;;5073603;28;20679;-73
2023/04/27 00:53:58;;;;;;;2.38;0.40;;;23.20;99.90;;;;;;5073453;28;20201;-73
2023/04/27 00:56:29;;;;;;;2.05;0.40;;;23.30;99.90;;;;;;5087111;28;20196;-74
2023/04/27 00:59:00;;;;;;;3.53;0.32;;;23.40;99.90;;;;;;5093528;28;20219;-73
2023/04/27 01:01:33;;;;;;;4.05;0.60;;;23.50;99.90;;;;;;5093234;28;20571;-74
2023/04/27 01:04:04;;;;;;;1.45;0.30;;;23.50;99.90;;;;;;5093551;28;20192;-74
2023/04/27 01:06:35;;;;;;;1.27;0.47;;;23.70;99.90;;;;;;5093954;28;20195;-72
2023/04/27 01:09:07;;;;;;;3.38;0.50;;;23.70;99.90;;;;;;5093462;28;20643;-74
2023/04/27 01:11:38;;;;;;;4.38;0.60;;;23.70;99.90;;;;;;5093534;28;20196;-73
2023/04/27 01:14:10;;;;;;;3.42;0.50;;;23.70;99.90;;;;;;5093581;28;20188;-74
2023/04/27 01:16:43;;;;;;;3.47;0.40;;;23.80;99.90;;;;;;5093168;28;20188;-73
2023/04/27 01:19:14;;;;;;;4.28;0.50;;;23.90;99.90;;;;;;5093672;28;20188;-75
2023/04/27 01:21:45;;;;;;;1.52;0.45;;;24.00;99.90;;;;;;5093444;28;20662;-74
2023/04/27 01:24:18;;;;;;;2.50;0.40;;;24.00;99.90;;;;;;5085658;28;20199;-76
2023/04/27 01:26:51;;;;;;;1.50;0.30;;;24.10;99.90;;;;;;5093330;28;20203;-74
2023/04/27 01:29:22;;;;;;;3.13;0.45;;;24.20;99.90;;;;;;5093279;28;20188;-74
2023/04/27 01:31:53;;;;;;;2.63;0.47;;;24.20;99.90;;;;;;5096450;28;20192;-75
2023/04/27 01:34:24;;;;;;;2.25;0.57;;;24.10;99.90;;;;;;5097503;28;20196;-74
2023/04/27 01:36:55;;;;;;;4.13;0.60;;;24.20;99.90;;;;;;5097338;28;20207;-74
2023/04/27 01:39:28;;;;;;;3.08;0.50;;;24.30;99.90;;;;;;5097400;28;20223;-75
2023/04/27 01:41:59;;;;;;;1.65;0.50;;;24.40;99.90;;;;;;5090897;28;20295;-74
2023/04/27 01:44:30;;;;;;;2.35;0.47;;;24.30;99.90;;;;;;5097712;28;20266;-73
2023/04/27 01:47:01;;;;;;;4.15;1.10;;;24.20;99.90;;;;;;5097022;28;20189;-73
2023/04/27 01:49:32;;;;;;;2.47;0.80;;;24.40;99.90;;;;;;5094802;28;20189;-74
2023/04/27 01:52:04;;;;;;;1.67;0.30;;;24.50;99.90;;;;;;5091597;28;20697;-73
2023/04/27 01:54:37;;;;;;;2.83;0.55;;;24.60;99.90;;;;;;5096788;28;20192;-73
2023/04/27 01:57:08;;;;;;;2.08;0.73;;;24.50;99.90;;;;;;5096573;28;20655;-73
2023/04/27 01:59:39;;;;;;;2.45;0.40;;;24.60;99.90;;;;;;5096448;28;20555;-74
2023/04/27 02:02:10;;;;;;;3.20;0.60;;;24.60;99.90;;;;;;5093384;28;20228;-74
2023/04/27 02:04:41;;;;;;;2.30;0.40;;;24.40;99.90;;;;;;5097022;28;20195;-74
2023/04/27 02:07:13;;;;;;;1.98;0.50;;;24.30;99.90;;;;;;5096926;28;20559;-74
2023/04/27 02:09:46;;;;;;;2.05;0.52;;;24.20;99.90;;;;;;5096855;28;20188;-74
2023/04/27 02:12:17;;;;;;;1.83;0.40;;;24.10;99.90;;;;;;5096805;28;20204;-74
2023/04/27 02:14:48;;;;;;;1.63;0.43;;;24.10;99.90;;;;;;5096553;28;20188;-74
2023/04/27 02:17:19;;;;;;;2.67;0.50;;;24.00;99.90;;;;;;5096695;28;20188;-74
2023/04/27 02:19:50;;;;;;;1.83;0.40;;;23.70;99.90;;;;;;5090444;28;20203;-73
2023/04/27 02:22:21;;;;;;;2.55;0.40;;;23.60;99.90;;;;;;5096938;28;20184;-73
2023/04/27 02:24:54;;;;;;;1.60;0.47;;;23.40;99.90;;;;;;5096600;28;20566;-74
2023/04/27 02:27:25;;;;;;;2.45;0.40;;;23.30;99.90;;;;;;5096521;28;20192;-73
2023/04/27 02:29:56;;;;;;;4.78;0.70;;;23.20;99.90;;;;;;5096219;28;20228;-74
2023/04/27 02:32:27;;;;;;;2.03;0.40;;;23.20;99.90;;;;;;5083593;28;20197;-73
2023/04/27 02:34:58;;;;;;;1.20;0.35;;;23.10;99.90;;;;;;5095039;28;20204;-73
2023/04/27 02:37:29;;;;;;;3.20;0.40;;;23.20;99.90;;;;;;5112417;28;20220;-73
2023/04/27 02:40:03;;;;;;;1.73;0.50;;;23.50;99.90;;;;;;5089944;28;20188;-75
2023/04/27 02:42:34;;;;;;;2.63;0.47;;;23.80;99.90;;;;;;5109233;28;20661;-74
2023/04/27 02:45:05;;;;;;;3.85;0.50;;;23.80;99.90;;;;;;5116246;28;20206;-76
2023/04/27 02:47:36;;;;;;;1.50;0.40;;;23.70;99.90;;;;;;5114770;28;20662;-74
2023/04/27 02:50:08;;;;;;;2.00;0.45;;;23.70;99.90;;;;;;5097804;27;20188;-74
2023/04/27 02:52:39;;;;;;;2.53;0.50;;;23.70;99.90;;;;;;5088887;28;20205;-73
2023/04/27 02:55:13;;;;;;;3.05;0.63;;;23.90;99.90;;;;;;5085298;28;20562;-74
2023/04/27 02:57:44;;;;;;;3.60;0.52;;;24.20;99.90;;;;;;5094577;28;20216;-74
2023/04/27 03:00:16;;;;;;;3.15;0.60;;;24.30;99.90;;;;;;5095651;28;20230;-74
2023/04/27 03:02:47;;;;;;;1.60;0.30;;;24.60;99.90;;;;;;5116128;28;20235;-73
2023/04/27 03:05:18;;;;;;;1.85;0.35;;;24.60;99.90;;;;;;5099984;28;20214;-73
2023/04/27 03:07:49;;;;;;;1.65;0.50;;;24.70;99.90;;;;;;5092374;28;20224;-73
2023/04/27 03:10:22;;;;;;;4.72;0.60;;;24.70;99.90;;;;;;5107904;28;20245;-73
2023/04/27 03:12:53;;;;;;;2.50;0.40;;;24.60;99.90;;;;;;5086511;28;20197;-74
2023/04/27 03:15:24;;;;;;;2.30;0.50;;;24.70;99.90;;;;;;5086972;28;20203;-73
2023/04/27 03:17:55;;;;;;;3.88;0.68;;;24.80;99.90;;;;;;5081385;28;20223;-74
2023/04/27 03:20:26;;;;;;;9.55;0.88;;;24.70;99.90;;;;;;5086999;28;20192;-73
2023/04/27 03:22:57;;;;;;;5.18;0.80;;;24.80;99.90;;;;;;5089967;28;20275;-75
2023/04/27 03:25:30;;;;;;;3.60;0.70;;;24.80;99.90;;;;;;5076252;28;20193;-74
2023/04/27 03:28:01;;;;;;;5.25;0.70;;;24.60;99.90;;;;;;5085370;28;20193;-73
2023/04/27 03:30:33;;;;;;;6.97;0.90;;;24.40;99.90;;;;;;5074187;28;20200;-74
2023/04/27 03:33:04;;;;;;;2.72;0.70;;;24.10;99.90;;;;;;5098408;28;20204;-74
2023/04/27 03:35:35;;;;;;;4.15;0.60;;;24.00;99.90;;;;;;5104310;28;20187;-74
2023/04/27 03:38:06;;;;;;;4.68;0.88;;;24.10;99.90;;;;;;5098337;27;20683;-73
2023/04/27 03:40:39;;;;;;;4.22;0.68;;;24.10;99.90;;;;;;5075834;28;20574;-74
2023/04/27 03:43:10;;;;;;;4.10;0.80;;;24.00;99.90;;;;;;5101016;28;20199;-74
2023/04/27 03:45:41;;;;;;;4.78;0.68;;;23.90;99.90;;;;;;5091354;27;20566;-73
2023/04/27 03:48:12;;;;;;;5.15;0.80;;;23.60;99.90;;;;;;5079466;28;20192;-73
2023/04/27 03:50:43;;;;;;;6.10;0.90;;;23.40;99.90;;;;;;5089442;28;20188;-76
2023/04/27 03:53:15;;;;;;;5.75;1.00;;;23.30;99.90;;;;;;5089552;28;20197;-76
2023/04/27 03:55:48;;;;;;;4.22;0.73;;;23.40;99.90;;;;;;5092294;28;20201;-74
2023/04/27 03:58:19;;;;;;;5.18;0.70;;;23.40;99.90;;;;;;5085998;28;20212;-75
2023/04/27 04:00:50;;;;;;;3.33;0.65;;;23.30;99.90;;;;;;5089573;28;20227;-74
2023/04/27 04:03:21;;;;;;;2.40;0.60;;;23.30;99.90;;;;;;5097068;28;20561;-73
2023/04/27 04:05:52;;;;;;;3.10;0.73;;;23.30;99.90;;;;;;5094310;28;20200;-74
2023/04/27 04:08:23;;;;;;;2.40;0.60;;;23.20;99.90;;;;;;5099163;28;20653;-74
2023/04/27 04:10:56;;;;;;;6.65;0.85;;;23.00;99.90;;;;;;5088444;28;20181;-75
2023/04/27 04:13:27;;;;;;;2.70;0.75;;;23.20;99.90;;;;;;5105554;28;20189;-74
2023/04/27 04:16:05;;;;;;;3.22;0.63;;;23.30;99.90;;;;;;5086814;28;20729;-74
2023/04/27 04:18:36;;;;;;;3.50;0.50;;;23.40;99.90;;;;;;5086669;28;20223;-74
2023/04/27 04:21:07;;;;;;;5.07;0.70;;;23.60;99.90;;;;;;5091791;28;20552;-74
2023/04/27 04:23:39;;;;;;;4.10;0.68;;;23.60;99.90;;;;;;5094151;28;20563;-74
2023/04/27 04:26:13;;;;;;;4.30;0.77;;;23.70;99.90;;;;;;5097030;27;20667;-73
2023/04/27 04:28:45;;;;;;;5.32;0.80;;;23.80;99.90;;;;;;5093858;28;20220;-73
2023/04/27 04:31:17;;;;;;;4.82;0.70;;;23.70;99.90;;;;;;5096520;28;20188;-74
2023/04/27 04:33:48;;;;;;;4.60;1.08;;;23.60;99.90;;;;;;5083572;28;20193;-73
2023/04/27 04:36:19;;;;;;;2.80;0.63;;;23.60;99.90;;;;;;5086649;28;20212;-74
2023/04/27 04:38:50;;;;;;;4.78;0.70;;;23.50;99.90;;;;;;5093487;28;20211;-73
2023/04/27 04:41:23;;;;;;;4.47;0.57;;;23.40;99.90;;;;;;5093853;28;20628;-73
2023/04/27 04:43:54;;;;;;;4.38;0.70;;;23.40;99.90;;;;;;5094085;28;20553;-74
2023/04/27 04:46:26;;;;;;;3.25;0.80;;;23.30;99.90;;;;;;5090008;28;20204;-74
2023/04/27 04:48:57;;;;;;;4.95;0.80;;;23.30;99.90;;;;;;5090186;28;20193;-74
2023/04/27 04:51:28;;;;;;;2.88;0.60;;;23.30;99.90;;;;;;5087496;28;20306;-73
2023/04/27 04:53:59;;;;;;;3.97;0.80;;;23.50;99.90;;;;;;5077488;28;20192;-73
2023/04/27 04:56:32;;;;;;;3.42;0.90;;;23.50;99.90;;;;;;5094924;28;20199;-73
2023/04/27 04:59:03;;;;;;;7.78;1.02;;;23.50;99.90;;;;;;5074834;28;20549;-73
2023/04/27 05:01:34;;;;;;;3.05;0.82;;;23.60;99.90;;;;;;5072938;28;20250;-73
2023/04/27 05:04:05;;;;;;;9.65;1.30;;;23.60;99.90;;;;;;5076923;28;20201;-72
2023/04/27 05:06:36;;;;;;;4.28;0.82;;;23.60;99.90;;;;;;5097036;28;20223;-73
2023/04/27 05:09:07;;;;;;;1.08;0.50;;;23.50;99.90;;;;;;5079720;28;20189;-73
2023/04/27 05:11:40;;;;;;;4.75;0.80;;;23.50;99.90;;;;;;5091185;28;20670;-74
2023/04/27 05:14:11;;;;;;;4.80;0.70;;;23.50;99.90;;;;;;5081845;28;20673;-74
2023/04/27 05:16:43;;;;;;;3.88;0.70;;;23.50;99.90;;;;;;5090670;28;20655;-73
2023/04/27 05:19:17;;;;;;;2.28;0.70;;;23.50;99.90;;;;;;5093202;28;20729;-73
2023/04/27 05:21:48;;;;;;;3.70;0.70;;;23.50;99.90;;;;;;5106054;28;20599;-75
2023/04/27 05:24:19;;;;;;;4.60;0.85;;;23.50;99.90;;;;;;5107791;28;20194;-74
2023/04/27 05:26:52;;;;;;;3.10;0.88;;;23.50;99.90;;;;;;5074461;28;20578;-73
2023/04/27 05:29:23;;;;;;;2.92;0.80;;;23.40;99.90;;;;;;5073203;28;20222;-75
2023/04/27 05:31:54;;;;;;;4.53;0.63;;;23.40;99.90;;;;;;5078063;28;20288;-73
2023/04/27 05:34:25;;;;;;;5.10;0.90;;;23.30;99.90;;;;;;5072425;28;20231;-73
2023/04/27 05:36:56;;;;;;;4.03;0.60;;;23.20;99.90;;;;;;5084564;28;20556;-74
2023/04/27 05:39:27;;;;;;;5.07;0.80;;;23.20;99.90;;;;;;5081474;28;20569;-75
2023/04/27 05:42:01;;;;;;;3.42;1.08;;;23.10;99.90;;;;;;5086848;28;20640;-75
2023/04/27 05:44:32;;;;;;;6.75;0.60;;;23.10;99.90;;;;;;5086484;28;20239;-75
2023/04/27 05:47:03;;;;;;;4.60;0.70;;;23.20;99.90;;;;;;5078611;28;20201;-74
2023/04/27 05:49:34;;;;;;;3.85;0.80;;;23.20;99.90;;;;;;5072705;28;20216;-76
2023/04/27 05:52:05;;;;;;;6.75;1.30;;;23.20;99.90;;;;;;5097996;28;20227;-74
2023/04/27 05:54:37;;;;;;;3.35;0.70;;;23.10;99.90;;;;;;5113415;28;20230;-74
2023/04/27 05:57:10;;;;;;;3.83;0.77;;;23.10;99.90;;;;;;5092398;28;20197;-74
2023/04/27 05:59:41;;;;;;;4.88;0.70;;;23.00;99.90;;;;;;5083627;28;20232;-74
2023/04/27 06:02:12;;;;;;;6.53;0.60;;;22.90;99.90;;;;;;5092653;28;20334;-73
2023/04/27 06:04:43;;;;;;;1.85;0.60;;;22.90;99.90;;;;;;5088708;28;20227;-74
2023/04/27 06:07:14;;;;;;;2.40;0.70;;;22.80;99.90;;;;;;5086156;28;20204;-73
2023/04/27 06:09:45;;;;;;;3.30;0.70;;;22.80;99.90;;;;;;5093294;28;20660;-74
2023/04/27 06:12:18;;;;;;;3.15;0.70;;;22.70;99.90;;;;;;5093669;28;20196;-74
2023/04/27 06:14:49;;;;;;;6.60;0.80;;;22.60;99.90;;;;;;5093676;28;20191;-75
2023/04/27 06:17:21;;;;;;;4.10;0.80;;;22.60;99.90;;;;;;5077604;28;20200;-73
2023/04/27 06:19:52;;;;;;;5.88;0.52;;;22.60;99.90;;;;;;5077118;28;20224;-75
2023/04/27 06:22:23;;;;;;;3.45;0.52;;;22.50;99.90;;;;;;5093749;28;20200;-74
2023/04/27 06:24:54;;;;;;;5.25;0.70;;;22.50;99.90;;;;;;5096726;28;20188;-74
2023/04/27 06:27:27;;;;;;;4.28;0.77;;;22.50;99.90;;;;;;5098865;28;20191;-75
2023/04/27 06:29:58;;;;;;;3.38;0.70;;;22.40;99.90;;;;;;5095769;28;20196;-74
2023/04/27 06:32:29;;;;;;;3.05;0.50;;;22.30;99.90;;;;;;5086916;28;20201;-75
2023/04/27 06:35:00;;;;;;;2.65;0.50;;;22.30;99.90;;;;;;5083131;28;20204;-74
2023/04/27 06:37:31;;;;;;;3.33;0.60;;;22.20;99.90;;;;;;5085508;28;20652;-74
2023/04/27 06:40:03;;;;;;;2.80;0.57;;;22.20;99.90;;;;;;5077771;28;20590;-73
2023/04/27 06:42:36;;;;;;;10.02;1.92;;;22.10;99.90;;;;;;5076756;28;20339;-74
2023/04/27 06:45:07;;;;;;;5.75;0.73;;;22.00;99.90;;;;;;5083829;28;20197;-72
2023/04/27 06:47:38;;;;;;;4.85;0.80;;;22.00;99.90;;;;;;5088778;28;20259;-75
2023/04/27 06:50:10;;;;;;;6.93;0.90;;;22.00;99.90;;;;;;5075491;28;20193;-73
2023/04/27 06:52:41;;;;;;;4.18;0.80;;;21.90;99.90;;;;;;5092768;28;20197;-74
2023/04/27 06:55:13;;;;;;;5.05;0.68;;;21.90;99.90;;;;;;5085255;28;20193;-74
2023/04/27 06:57:47;;;;;;;14.98;9.20;;;21.90;99.90;;;;;;5086011;28;20204;-74
2023/04/27 07:00:19;;;;;;;6.22;0.93;;;21.80;99.90;;;;;;5088600;28;20690;-74
2023/04/27 07:02:50;;;;;;;6.40;1.25;;;21.80;99.90;;;;;;5082189;28;20231;-74
2023/04/27 07:05:21;;;;;;;3.90;0.88;;;21.80;99.90;;;;;;5076252;28;20311;-75
2023/04/27 07:07:52;;;;;;;4.75;0.88;;;21.70;99.90;;;;;;5096323;28;20199;-74
2023/04/27 07:10:24;;;;;;;4.72;0.85;;;21.60;99.90;;;;;;5085720;28;20195;-74
2023/04/27 07:12:57;;;;;;;5.82;1.23;;;21.60;99.90;;;;;;5088961;28;20657;-75
2023/04/27 07:15:28;;;;;;;3.60;0.82;;;21.50;99.90;;;;;;5075670;28;20636;-73
2023/04/27 07:17:59;;;;;;;5.97;0.70;;;21.40;99.90;;;;;;5078749;28;20204;-74
2023/04/27 07:20:30;;;;;;;6.65;0.73;;;21.40;99.90;;;;;;5092093;28;20262;-75
2023/04/27 07:23:02;;;;;;;4.35;0.82;;;21.40;99.90;;;;;;5091157;28;20253;-74
2023/04/27 07:25:33;;;;;;;5.53;0.70;;;21.30;99.90;;;;;;5097321;28;20279;-75
2023/04/27 07:28:06;;;;;;;4.38;0.80;;;21.20;99.90;;;;;;5096814;28;20196;-74
2023/04/27 07:30:37;;;;;;;6.45;0.77;;;21.20;99.90;;;;;;5094216;28;20211;-74
2023/04/27 07:33:08;;;;;;;6.63;1.00;;;21.20;99.90;;;;;;5077206;28;20311;-75
2023/04/27 07:35:40;;;;;;;7.85;1.10;;;21.20;99.90;;;;;;5075551;28;20279;-75
2023/04/27 07:38:11;;;;;;;6.70;0.80;;;21.10;99.90;;;;;;5090263;28;20203;-74
2023/04/27 07:40:42;;;;;;;4.70;0.65;;;21.10;99.90;;;;;;5092760;28;20220;-75
2023/04/27 07:43:16;;;;;;;6.70;1.00;;;21.10;99.90;;;;;;5082705;28;20657;-75
2023/04/27 07:45:49;;;;;;;7.22;0.80;;;21.00;99.90;;;;;;5080105;28;20278;-74
2023/04/27 07:48:20;;;;;;;4.70;0.82;;;21.00;99.90;;;;;;5080037;28;20203;-74
2023/04/27 07:50:51;;;;;;;6.45;0.90;;;21.00;99.90;;;;;;5083507;28;20207;-75
2023/04/27 07:53:22;;;;;;;5.95;0.98;;;21.00;99.90;;;;;;5094016;28;20226;-75
2023/04/27 07:55:53;;;;;;;6.05;0.95;;;20.90;99.90;;;;;;5094552;28;20279;-74
2023/04/27 07:58:26;;;;;;;10.23;0.80;;;20.90;99.90;;;;;;5092727;28;20200;-75
2023/04/27 08:00:59;;;;;;;5.50;0.65;;;20.90;99.90;;;;;;5090445;28;20235;-75
2023/04/27 08:03:30;;;;;;;7.30;0.90;;;20.80;99.90;;;;;;5091391;28;20196;-74
2023/04/27 08:06:01;;;;;;;7.30;1.00;;;20.80;99.90;;;;;;5081907;28;20201;-74
2023/04/27 08:08:32;;;;;;;6.38;0.90;;;20.80;99.90;;;;;;5092559;28;20188;-74
2023/04/27 08:11:04;;;;;;;7.05;0.95;;;20.80;99.90;;;;;;5090966;28;20196;-74
2023/04/27 08:13:40;;;;;;;3.55;0.85;;;20.80;99.90;;;;;;5092343;28;20238;-75
2023/04/27 08:16:12;;;;;;;5.00;0.70;;;20.70;99.90;;;;;;5080588;28;20660;-74
2023/04/27 08:18:43;;;;;;;4.93;0.73;;;20.70;99.90;;;;;;5087160;28;20198;-75
2023/04/27 08:21:14;;;;;;;4.50;0.90;;;20.70;99.90;;;;;;5093930;28;20223;-74
2023/04/27 08:23:45;;;;;;;6.15;0.82;;;20.70;99.90;;;;;;5092321;28;20208;-74
2023/04/27 08:26:20;;;;;;;3.47;0.68;;;20.70;99.90;;;;;;5081527;28;20196;-74
2023/04/27 08:28:53;;;;;;;7.60;1.00;;;20.70;99.90;;;;;;5092219;28;20308;-74
2023/04/27 08:31:24;;;;;;;6.80;0.98;;;20.60;99.90;;;;;;5089570;28;20297;-74
2023/04/27 08:33:55;;;;;;;3.95;0.80;;;20.60;99.90;;;;;;5092898;28;20197;-74
2023/04/27 08:36:27;;;;;;;4.28;0.63;;;20.60;99.90;;;;;;5085586;28;20204;-75
2023/04/27 08:38:58;;;;;;;6.13;0.90;;;20.50;99.90;;;;;;5097594;28;20204;-74
2023/04/27 08:41:29;;;;;;;7.20;0.98;;;20.50;99.90;;;;;;5091608;28;20199;-74
2023/04/27 08:44:02;;;;;;;3.38;0.90;;;20.50;99.90;;;;;;5088918;28;20195;-75
2023/04/27 08:46:33;;;;;;;6.03;0.77;;;20.40;99.90;;;;;;5090926;28;20223;-74
2023/04/27 08:49:06;;;;;;;7.18;0.90;;;20.40;99.90;;;;;;5089487;28;20683;-74
2023/04/27 08:51:37;;;;;;;6.43;1.25;;;20.40;99.90;;;;;;5075615;28;20604;-74
2023/04/27 08:54:08;;;;;;;9.60;1.05;;;20.40;99.90;;;;;;5090866;28;20660;-74
2023/04/27 08:56:39;;;;;;;5.53;0.80;;;20.40;99.90;;;;;;5081118;28;20192;-74
2023/04/27 08:59:17;;;;;;;6.32;1.10;;;20.30;99.90;;;;;;5092660;28;20908;-74
2023/04/27 09:01:49;;;;;;;4.90;0.90;;;20.40;99.90;;;;;;5088865;28;20228;-74
2023/04/27 09:04:20;;;;;;;4.82;0.80;;;20.40;99.90;;;;;;5085293;28;20196;-74
2023/04/27 09:06:52;;;;;;;7.95;0.90;;;20.30;99.90;;;;;;5086109;28;20200;-74
2023/04/27 09:09:26;;;;;;;4.15;1.00;;;20.30;99.90;;;;;;5092735;28;20192;-74
2023/04/27 09:11:57;;;;;;;4.95;1.10;;;20.30;99.90;;;;;;5088107;28;20646;-74
2023/04/27 09:14:34;;;;;;;4.50;0.70;;;20.30;99.90;;;;;;5090981;28;20201;-74
2023/04/27 09:17:05;;;;;;;6.25;0.90;;;20.30;99.90;;;;;;5079153;28;20194;-74
2023/04/27 09:19:36;;;;;;;6.95;0.75;;;20.20;99.90;;;;;;5093355;28;20223;-75
2023/04/27 09:22:09;;;;;;;3.50;1.00;;;20.20;99.90;;;;;;5089192;28;20188;-74
2023/04/27 09:24:40;;;;;;;6.55;1.08;;;20.20;99.90;;;;;;5081252;28;20211;-74
2023/04/27 09:27:20;;;;;;;6.65;1.25;;;20.30;99.90;;;;;;5073643;28;20197;-74
2023/04/27 09:29:53;;;;;;;6.97;1.10;;;20.20;99.90;;;;;;5092774;28;20647;-74
2023/04/27 09:32:24;;;;;;;4.05;0.80;;;20.20;99.90;;;;;;5078801;28;20197;-74
2023/04/27 09:34:55;;;;;;;7.20;1.10;;;20.20;99.90;;;;;;5089556;28;20199;-75
2023/04/27 09:37:28;;;;;;;7.38;1.23;;;20.20;99.90;;;;;;5094475;28;20196;-74
2023/04/27 09:39:59;;;;;;;7.68;0.85;;;20.20;99.90;;;;;;5076836;28;20224;-74
2023/04/27 09:42:30;;;;;;;3.35;0.90;;;20.20;99.90;;;;;;5084209;28;20205;-74
2023/04/27 09:45:04;;;;;;;6.85;1.02;;;20.20;99.90;;;;;;5089156;28;20192;-74
2023/04/27 09:47:36;;;;;;;7.00;1.05;;;20.10;99.90;;;;;;5090340;28;20570;-74
2023/04/27 09:50:09;;;;;;;3.42;0.95;;;20.10;99.90;;;;;;5079700;28;20207;-74
2023/04/27 09:52:40;;;;;;;11.05;1.08;;;20.10;99.90;;;;;;5093736;28;20196;-74
2023/04/27 09:55:15;;;;;;;6.97;1.05;;;20.10;99.90;;;;;;5085240;28;20196;-74
2023/04/27 09:57:55;;;;;;;4.72;0.90;;;20.10;99.90;;;;;;5092962;28;20191;-74
2023/04/27 10:00:44;;;;;;;5.32;1.10;;;20.10;99.90;;;;;;5091348;28;20227;-74
2023/04/27 10:03:24;;;;;;;5.55;0.90;;;20.10;99.90;;;;;;5084453;28;20202;-74
2023/04/27 10:06:38;;;;;;;5.63;0.80;;;20.00;99.90;;;;;;5106660;28;20206;-74
2023/04/27 10:09:11;;;;;;;3.90;0.70;;;20.00;99.90;;;;;;5080019;28;20604;-74
2023/04/27 10:11:44;;;;;;;5.95;0.85;;;20.00;99.90;;;;;;5091148;28;20208;-74
2023/04/27 10:14:20;;;;;;;6.43;0.90;;;20.00;99.90;;;;;;5089509;28;20710;-74
2023/04/27 10:16:55;;;;;;;5.93;1.00;;;20.00;99.90;;;;;;5094347;28;20582;-74
2023/04/27 10:19:27;;;;;;;3.63;0.75;;;20.00;99.90;;;;;;5096735;28;20195;-74
2023/04/27 10:22:02;;;;;;;5.85;0.90;;;19.90;99.90;;;;;;5088381;28;20228;-74
2023/04/27 10:24:40;;;;;;;5.80;0.80;;;19.90;99.90;;;;;;5085572;28;20583;-74
2023/04/27 10:27:12;;;;;;;7.07;1.10;;;19.90;99.90;;;;;;5085345;28;20223;-73
2023/04/27 10:29:45;;;;;;;8.23;1.00;;;19.90;99.90;;;;;;5091480;28;20651;-74
2023/04/27 10:32:25;;;;;;;6.35;0.90;;;19.90;99.90;;;;;;5090713;28;20216;-74
2023/04/27 10:35:06;;;;;;;3.85;0.85;;;19.80;99.90;;;;;;5095296;28;20554;-73
2023/04/27 10:37:46;;;;;;;4.25;0.95;;;19.80;99.90;;;;;;5097537;28;20282;-74
2023/04/27 10:40:18;;;;;;;3.45;0.70;;;19.80;99.90;;;;;;5079329;28;20227;-74
2023/04/27 10:42:50;;;;;;;5.72;1.10;;;19.80;99.90;;;;;;5087570;28;20219;-74
2023/04/27 10:45:30;;;;;;;5.43;0.90;;;19.80;99.90;;;;;;5089156;28;20211;-74
2023/04/27 10:48:04;;;;;;;4.50;0.98;;;19.80;99.90;;;;;;5090270;28;20211;-74
2023/04/27 10:50:35;;;;;;;9.63;1.00;;;19.80;99.90;;;;;;5087103;28;20193;-74
2023/04/27 10:53:08;;;;;;;13.73;1.50;;;19.80;99.90;;;;;;5090593;28;20197;-74
2023/04/27 10:55:39;;;;;;;4.50;0.95;;;19.70;99.90;;;;;;5092541;28;20203;-74
2023/04/27 10:58:10;;;;;;;9.77;1.00;;;19.80;99.90;;;;;;5084644;28;20201;-73
2023/04/27 11:00:44;;;;;;;7.55;1.10;;;19.80;99.90;;;;;;5088158;28;20216;-74
2023/04/27 11:03:20;;;;;;;8.65;0.98;;;19.80;99.90;;;;;;5089240;28;20654;-74
2023/04/27 11:06:00;;;;;;;4.85;0.95;;;19.80;99.90;;;;;;5081193;28;20203;-74
2023/04/27 11:08:31;;;;;;;6.93;1.10;;;19.70;99.90;;;;;;5091260;28;20203;-74
2023/04/27 11:11:04;;;;;;;5.88;1.00;;;19.70;99.90;;;;;;5090777;28;20188;-74
2023/04/27 11:13:35;;;;;;;7.82;0.80;;;19.70;99.90;;;;;;5095662;28;20202;-74
2023/04/27 11:16:08;;;;;;;5.40;0.88;;;19.70;99.90;;;;;;5092731;28;20565;-73
2023/04/27 11:18:42;;;;;;;3.90;0.88;;;19.70;99.90;;;;;;5084811;28;20197;-74
2023/04/27 11:21:15;;;;;;;3.60;0.80;;;19.70;99.90;;;;;;5084608;28;20212;-74
2023/04/27 11:23:46;;;;;;;5.80;1.20;;;19.70;99.90;;;;;;5088441;28;20675;-73
2023/04/27 11:26:19;;;;;;;5.78;0.80;;;19.70;99.90;;;;;;5098250;28;20200;-74
2023/04/27 11:29:08;;;;;;;8.50;1.00;;;19.70;99.90;;;;;;5094337;28;20559;-73
2023/04/27 11:31:47;;;;;;;3.47;0.90;;;19.70;99.90;;;;;;5095148;28;20184;-74
2023/04/27 11:34:24;;;;;;;7.63;1.00;;;19.70;99.90;;;;;;5095076;28;20228;-74
2023/04/27 11:37:02;;;;;;;4.65;1.05;;;19.70;99.90;;;;;;5095342;28;20190;-74
2023/04/27 11:39:37;;;;;;;4.40;0.90;;;19.60;99.90;;;;;;5078222;28;20250;-74
2023/04/27 11:42:21;;;;;;;7.90;1.00;;;19.60;99.90;;;;;;5076874;28;20208;-74
2023/04/27 11:45:00;;;;;;;7.75;1.55;;;19.60;99.90;;;;;;5093640;28;20249;-74
2023/04/27 11:47:32;;;;;;;6.65;1.20;;;19.50;99.90;;;;;;5094955;28;20192;-74
2023/04/27 11:50:08;;;;;;;5.65;0.93;;;19.50;99.90;;;;;;5092771;28;20559;-73
2023/04/27 11:52:41;;;;;;;3.35;1.02;;;19.50;99.90;;;;;;5097373;28;20670;-74
2023/04/27 11:55:14;;;;;;;3.22;0.90;;;19.50;99.90;;;;;;5089685;28;20259;-74
2023/04/27 11:57:45;;;;;;;3.97;1.15;;;19.50;99.90;;;;;;5091681;28;20655;-73
2023/04/27 12:00:17;;;;;;;6.80;0.98;;;19.50;99.90;;;;;;5094944;28;20196;-74
2023/04/27 12:02:48;;;;;;;8.98;1.13;;;19.50;99.90;;;;;;5094622;28;20232;-74
2023/04/27 12:05:21;;;;;;;5.68;1.08;;;19.50;99.90;;;;;;5094824;28;20550;-73
2023/04/27 12:07:53;;;;;;;3.90;0.90;;;19.40;99.90;;;;;;5074890;28;20193;-75
2023/04/27 12:10:24;;;;;;;5.20;0.98;;;19.40;99.90;;;;;;5075774;28;20189;-73
2023/04/27 12:12:55;;;;;;;4.78;0.82;;;19.40;99.90;;;;;;5083252;28;20197;-74
2023/04/27 12:15:26;;;;;;;3.67;0.80;;;19.30;99.90;;;;;;5088725;28;20207;-73
2023/04/27 12:17:57;;;;;;;7.35;0.90;;;19.30;99.90;;;;;;5097696;28;20204;-74
2023/04/27 12:20:30;;;;;;;4.10;0.88;;;19.20;99.90;;;;;;5094782;28;20199;-74
2023/04/27 12:23:02;;;;;;;3.72;0.85;;;19.20;99.90;;;;;;5085961;28;20738;-74
2023/04/27 12:25:33;;;;;;;5.55;1.02;;;19.10;99.90;;;;;;5081360;28;20543;-74
2023/04/27 12:28:05;;;;;;;7.28;0.90;;;19.10;99.90;;;;;;5094943;28;20203;-74
2023/04/27 12:30:36;;;;;;;5.72;0.80;;;19.00;99.90;;;;;;5086496;27;20200;-74
2023/04/27 12:33:09;;;;;;;6.53;0.88;;;19.00;99.90;;;;;;5094153;28;20222;-74
2023/04/27 12:35:42;;;;;;;2.45;0.70;;;19.00;99.90;;;;;;5097306;28;20200;-74
2023/04/27 12:38:13;;;;;;;6.30;0.85;;;19.00;99.90;;;;;;5089811;28;20659;-74
2023/04/27 12:40:45;;;;;;;5.22;1.00;;;18.90;99.90;;;;;;5074481;28;20212;-73
2023/04/27 12:43:16;;;;;;;5.15;0.85;;;18.90;99.90;;;;;;5104261;28;20568;-74
2023/04/27 12:45:47;;;;;;;3.42;0.73;;;18.90;99.90;;;;;;5082218;28;20192;-74
2023/04/27 12:48:18;;;;;;;4.40;0.77;;;18.90;99.90;;;;;;5088755;28;20563;-73
2023/04/27 12:50:51;;;;;;;3.80;0.80;;;18.90;99.90;;;;;;5075139;28;20201;-74
2023/04/27 12:53:22;;;;;;;4.43;0.85;;;18.80;99.90;;;;;;5091581;28;21713;-74
2023/04/27 12:55:54;;;;;;;4.38;0.90;;;18.90;99.90;;;;;;5097067;28;20193;-73
2023/04/27 12:58:25;;;;;;;2.85;0.80;;;18.90;99.90;;;;;;5093741;28;20214;-74
2023/04/27 13:00:58;;;;;;;4.35;0.80;;;18.80;99.90;;;;;;5091342;28;20678;-74
2023/04/27 13:03:29;;;;;;;4.72;1.10;;;18.80;99.90;;;;;;5086052;28;20671;-75
2023/04/27 13:06:02;;;;;;;3.30;0.73;;;18.80;99.90;;;;;;5073436;28;20556;-74
2023/04/27 13:08:33;;;;;;;3.10;0.70;;;18.70;99.90;;;;;;5073311;28;20204;-74
2023/04/27 13:11:04;;;;;;;5.03;0.90;;;18.70;99.90;;;;;;5073457;28;20228;-73